sensor_id;sensor_type;location;lat;lon;timestamp;P1;durP1;ratioP1;P2;durP2;ratioP2
29662;SDS011;16578;53.266;7.920;2023-02-04T00:01:23;18.88;;;3.42;;
29662;SDS011;16578;53.266;7.920;2023-02-04T00:03:48;12.82;;;2.63;;
29662;SDS011;16578;53.266;7.920;2023-02-04T00:06:14;10.90;;;2.97;;
29662;SDS011;16578;53.266;7.920;2023-02-04T00:08:40;13.32;;;2.15;;
29662;SDS011;16578;53.266;7.920;2023-02-04T00:11:05;11.63;;;2.30;;
29662;SDS011;16578;53.266;7.920;2023-02-04T00:13:31;10.20;;;2.10;;
29662;SDS011;16578;53.266;7.920;2023-02-04T00:15:56;10.95;;;2.67;;
29662;SDS011;16578;53.266;7.920;2023-02-04T00:18:22;7.53;;;1.90;;
29662;SDS011;16578;53.266;7.920;2023-02-04T00:20:47;9.40;;;2.00;;
29662;SDS011;16578;53.266;7.920;2023-02-04T00:23:13;7.47;;;1.95;;
29662;SDS011;16578;53.266;7.920;2023-02-04T00:25:38;4.90;;;1.50;;
29662;SDS011;16578;53.266;7.920;2023-02-04T00:28:04;10.07;;;3.03;;
29662;SDS011;16578;53.266;7.920;2023-02-04T00:30:30;7.25;;;1.70;;
29662;SDS011;16578;53.266;7.920;2023-02-04T00:32:56;5.28;;;1.75;;
29662;SDS011;16578;53.266;7.920;2023-02-04T00:35:22;5.68;;;1.98;;
29662;SDS011;16578;53.266;7.920;2023-02-04T00:37:48;7.68;;;1.90;;
29662;SDS011;16578;53.266;7.920;2023-02-04T00:40:14;6.90;;;1.58;;
29662;SDS011;16578;53.266;7.920;2023-02-04T00:42:40;5.35;;;1.65;;
29662;SDS011;16578;53.266;7.920;2023-02-04T00:45:05;7.75;;;1.70;;
29662;SDS011;16578;53.266;7.920;2023-02-04T00:47:31;8.50;;;2.17;;
29662;SDS011;16578;53.266;7.920;2023-02-04T00:49:56;9.27;;;1.58;;
29662;SDS011;16578;53.266;7.920;2023-02-04T00:52:22;5.78;;;1.67;;
29662;SDS011;16578;53.266;7.920;2023-02-04T00:54:48;7.00;;;1.77;;
29662;SDS011;16578;53.266;7.920;2023-02-04T00:57:13;4.85;;;1.50;;
29662;SDS011;16578;53.266;7.920;2023-02-04T00:59:39;6.22;;;1.55;;
29662;SDS011;16578;53.266;7.920;2023-02-04T01:02:05;8.05;;;2.17;;
29662;SDS011;16578;53.266;7.920;2023-02-04T01:04:30;4.63;;;1.40;;
29662;SDS011;16578;53.266;7.920;2023-02-04T01:06:56;6.07;;;2.05;;
29662;SDS011;16578;53.266;7.920;2023-02-04T01:09:22;5.15;;;1.63;;
29662;SDS011;16578;53.266;7.920;2023-02-04T01:11:48;5.78;;;1.75;;
29662;SDS011;16578;53.266;7.920;2023-02-04T01:14:13;4.38;;;1.50;;
29662;SDS011;16578;53.266;7.920;2023-02-04T01:16:39;5.75;;;1.85;;
29662;SDS011;16578;53.266;7.920;2023-02-04T01:19:04;5.07;;;1.52;;
29662;SDS011;16578;53.266;7.920;2023-02-04T01:21:30;5.40;;;1.80;;
29662;SDS011;16578;53.266;7.920;2023-02-04T01:23:56;6.13;;;1.60;;
29662;SDS011;16578;53.266;7.920;2023-02-04T01:26:21;4.90;;;1.20;;
29662;SDS011;16578;53.266;7.920;2023-02-04T01:28:47;7.55;;;1.83;;
29662;SDS011;16578;53.266;7.920;2023-02-04T01:31:13;7.07;;;1.63;;
29662;SDS011;16578;53.266;7.920;2023-02-04T01:33:39;7.38;;;1.98;;
29662;SDS011;16578;53.266;7.920;2023-02-04T01:36:04;7.90;;;1.60;;
29662;SDS011;16578;53.266;7.920;2023-02-04T01:38:30;6.15;;;1.50;;
29662;SDS011;16578;53.266;7.920;2023-02-04T01:40:56;7.97;;;1.60;;
29662;SDS011;16578;53.266;7.920;2023-02-04T01:43:22;7.10;;;1.75;;
29662;SDS011;16578;53.266;7.920;2023-02-04T01:45:48;7.43;;;1.75;;
29662;SDS011;16578;53.266;7.920;2023-02-04T01:48:15;5.00;;;1.38;;
29662;SDS011;16578;53.266;7.920;2023-02-04T01:50:51;6.60;;;1.80;;
29662;SDS011;16578;53.266;7.920;2023-02-04T01:53:21;5.45;;;1.50;;
29662;SDS011;16578;53.266;7.920;2023-02-04T01:55:49;6.78;;;1.80;;
29662;SDS011;16578;53.266;7.920;2023-02-04T01:58:15;4.78;;;1.77;;
29662;SDS011;16578;53.266;7.920;2023-02-04T02:00:41;8.55;;;2.05;;
29662;SDS011;16578;53.266;7.920;2023-02-04T02:03:07;6.50;;;1.70;;
29662;SDS011;16578;53.266;7.920;2023-02-04T02:05:39;8.02;;;1.60;;
29662;SDS011;16578;53.266;7.920;2023-02-04T02:08:10;5.75;;;1.85;;
29662;SDS011;16578;53.266;7.920;2023-02-04T02:10:38;6.45;;;1.40;;
29662;SDS011;16578;53.266;7.920;2023-02-04T02:13:05;5.97;;;1.63;;
29662;SDS011;16578;53.266;7.920;2023-02-04T02:15:33;5.75;;;1.88;;
29662;SDS011;16578;53.266;7.920;2023-02-04T02:17:58;5.85;;;1.98;;
29662;SDS011;16578;53.266;7.920;2023-02-04T02:20:24;5.88;;;1.70;;
29662;SDS011;16578;53.266;7.920;2023-02-04T02:25:40;7.05;;;1.85;;
29662;SDS011;16578;53.266;7.920;2023-02-04T02:28:09;6.28;;;2.13;;
29662;SDS011;16578;53.266;7.920;2023-02-04T02:30:37;6.85;;;1.92;;
29662;SDS011;16578;53.266;7.920;2023-02-04T02:33:03;4.13;;;1.50;;
29662;SDS011;16578;53.266;7.920;2023-02-04T02:35:30;5.68;;;1.73;;
29662;SDS011;16578;53.266;7.920;2023-02-04T02:37:56;4.97;;;1.45;;
29662;SDS011;16578;53.266;7.920;2023-02-04T02:40:21;7.05;;;1.60;;
29662;SDS011;16578;53.266;7.920;2023-02-04T02:42:48;5.20;;;1.70;;
29662;SDS011;16578;53.266;7.920;2023-02-04T02:45:25;4.45;;;1.42;;
29662;SDS011;16578;53.266;7.920;2023-02-04T02:47:52;5.00;;;2.05;;
29662;SDS011;16578;53.266;7.920;2023-02-04T02:52:48;4.38;;;1.40;;
29662;SDS011;16578;53.266;7.920;2023-02-04T02:55:15;6.65;;;2.28;;
29662;SDS011;16578;53.266;7.920;2023-02-04T02:57:43;7.85;;;2.00;;
29662;SDS011;16578;53.266;7.920;2023-02-04T03:00:17;7.57;;;1.40;;
29662;SDS011;16578;53.266;7.920;2023-02-04T03:02:45;10.13;;;2.10;;
29662;SDS011;16578;53.266;7.920;2023-02-04T03:05:18;3.97;;;1.45;;
29662;SDS011;16578;53.266;7.920;2023-02-04T03:07:43;7.50;;;1.75;;
29662;SDS011;16578;53.266;7.920;2023-02-04T03:10:09;7.47;;;2.17;;
29662;SDS011;16578;53.266;7.920;2023-02-04T03:12:34;7.03;;;1.95;;
29662;SDS011;16578;53.266;7.920;2023-02-04T03:15:00;9.00;;;1.90;;
29662;SDS011;16578;53.266;7.920;2023-02-04T03:17:28;7.40;;;2.10;;
29662;SDS011;16578;53.266;7.920;2023-02-04T03:19:53;4.85;;;1.75;;
29662;SDS011;16578;53.266;7.920;2023-02-04T03:22:20;9.32;;;2.00;;
29662;SDS011;16578;53.266;7.920;2023-02-04T03:24:45;12.23;;;1.77;;
29662;SDS011;16578;53.266;7.920;2023-02-04T03:27:11;8.30;;;1.77;;
29662;SDS011;16578;53.266;7.920;2023-02-04T03:29:42;4.50;;;1.57;;
29662;SDS011;16578;53.266;7.920;2023-02-04T03:32:09;5.80;;;1.90;;
29662;SDS011;16578;53.266;7.920;2023-02-04T03:34:35;9.95;;;2.10;;
29662;SDS011;16578;53.266;7.920;2023-02-04T03:37:01;5.28;;;1.73;;
29662;SDS011;16578;53.266;7.920;2023-02-04T03:39:26;6.75;;;1.88;;
29662;SDS011;16578;53.266;7.920;2023-02-04T03:41:52;4.53;;;1.65;;
29662;SDS011;16578;53.266;7.920;2023-02-04T03:44:17;7.40;;;1.92;;
29662;SDS011;16578;53.266;7.920;2023-02-04T03:46:43;7.88;;;2.20;;
29662;SDS011;16578;53.266;7.920;2023-02-04T03:49:09;7.15;;;1.65;;
29662;SDS011;16578;53.266;7.920;2023-02-04T03:51:34;11.15;;;2.38;;
29662;SDS011;16578;53.266;7.920;2023-02-04T03:54:00;5.13;;;1.75;;
29662;SDS011;16578;53.266;7.920;2023-02-04T03:56:25;10.20;;;1.83;;
29662;SDS011;16578;53.266;7.920;2023-02-04T03:58:51;9.95;;;2.40;;
29662;SDS011;16578;53.266;7.920;2023-02-04T04:01:16;5.78;;;2.03;;
29662;SDS011;16578;53.266;7.920;2023-02-04T04:03:42;9.77;;;1.95;;
29662;SDS011;16578;53.266;7.920;2023-02-04T04:06:07;8.63;;;1.60;;
29662;SDS011;16578;53.266;7.920;2023-02-04T04:08:35;7.90;;;2.22;;
29662;SDS011;16578;53.266;7.920;2023-02-04T04:11:00;9.60;;;1.90;;
29662;SDS011;16578;53.266;7.920;2023-02-04T04:13:26;5.57;;;1.88;;
29662;SDS011;16578;53.266;7.920;2023-02-04T04:15:52;9.32;;;2.05;;
29662;SDS011;16578;53.266;7.920;2023-02-04T04:18:17;5.40;;;1.52;;
29662;SDS011;16578;53.266;7.920;2023-02-04T04:20:43;9.27;;;2.15;;
29662;SDS011;16578;53.266;7.920;2023-02-04T04:23:08;2.85;;;1.38;;
29662;SDS011;16578;53.266;7.920;2023-02-04T04:25:34;12.50;;;2.03;;
29662;SDS011;16578;53.266;7.920;2023-02-04T04:27:59;4.93;;;1.75;;
29662;SDS011;16578;53.266;7.920;2023-02-04T04:30:25;3.75;;;1.63;;
29662;SDS011;16578;53.266;7.920;2023-02-04T04:32:50;9.40;;;2.45;;
29662;SDS011;16578;53.266;7.920;2023-02-04T04:35:16;5.68;;;2.03;;
29662;SDS011;16578;53.266;7.920;2023-02-04T04:37:41;6.85;;;1.80;;
29662;SDS011;16578;53.266;7.920;2023-02-04T04:40:08;6.13;;;1.52;;
29662;SDS011;16578;53.266;7.920;2023-02-04T04:42:37;6.10;;;1.73;;
29662;SDS011;16578;53.266;7.920;2023-02-04T04:45:04;4.20;;;1.40;;
29662;SDS011;16578;53.266;7.920;2023-02-04T04:47:32;4.28;;;1.52;;
29662;SDS011;16578;53.266;7.920;2023-02-04T04:49:58;13.95;;;2.10;;
29662;SDS011;16578;53.266;7.920;2023-02-04T04:52:23;4.82;;;1.63;;
29662;SDS011;16578;53.266;7.920;2023-02-04T04:54:49;3.80;;;1.80;;
29662;SDS011;16578;53.266;7.920;2023-02-04T04:57:14;4.72;;;1.52;;
29662;SDS011;16578;53.266;7.920;2023-02-04T04:59:40;2.20;;;1.25;;
29662;SDS011;16578;53.266;7.920;2023-02-04T05:02:05;5.47;;;1.70;;
29662;SDS011;16578;53.266;7.920;2023-02-04T05:04:31;2.65;;;1.50;;
29662;SDS011;16578;53.266;7.920;2023-02-04T05:06:56;13.02;;;2.42;;
29662;SDS011;16578;53.266;7.920;2023-02-04T05:09:22;5.55;;;1.42;;
29662;SDS011;16578;53.266;7.920;2023-02-04T05:11:47;5.10;;;1.40;;
29662;SDS011;16578;53.266;7.920;2023-02-04T05:14:13;2.30;;;1.38;;
29662;SDS011;16578;53.266;7.920;2023-02-04T05:16:38;3.47;;;1.38;;
29662;SDS011;16578;53.266;7.920;2023-02-04T05:19:04;3.58;;;1.33;;
29662;SDS011;16578;53.266;7.920;2023-02-04T05:21:29;2.33;;;1.60;;
29662;SDS011;16578;53.266;7.920;2023-02-04T05:23:55;5.03;;;1.70;;
29662;SDS011;16578;53.266;7.920;2023-02-04T05:26:20;6.15;;;1.85;;
29662;SDS011;16578;53.266;7.920;2023-02-04T05:28:46;9.20;;;2.10;;
29662;SDS011;16578;53.266;7.920;2023-02-04T05:31:11;5.10;;;1.42;;
29662;SDS011;16578;53.266;7.920;2023-02-04T05:33:37;5.13;;;1.77;;
29662;SDS011;16578;53.266;7.920;2023-02-04T05:36:02;8.05;;;1.90;;
29662;SDS011;16578;53.266;7.920;2023-02-04T05:38:28;10.07;;;2.60;;
29662;SDS011;16578;53.266;7.920;2023-02-04T05:40:54;4.90;;;1.83;;
29662;SDS011;16578;53.266;7.920;2023-02-04T05:43:19;2.83;;;1.50;;
29662;SDS011;16578;53.266;7.920;2023-02-04T05:45:45;5.85;;;1.90;;
29662;SDS011;16578;53.266;7.920;2023-02-04T05:48:10;3.47;;;1.63;;
29662;SDS011;16578;53.266;7.920;2023-02-04T05:50:36;4.90;;;1.85;;
29662;SDS011;16578;53.266;7.920;2023-02-04T05:53:01;4.18;;;1.73;;
29662;SDS011;16578;53.266;7.920;2023-02-04T05:55:27;6.20;;;2.00;;
29662;SDS011;16578;53.266;7.920;2023-02-04T05:57:52;3.97;;;1.48;;
29662;SDS011;16578;53.266;7.920;2023-02-04T06:00:18;5.07;;;1.80;;
29662;SDS011;16578;53.266;7.920;2023-02-04T06:02:44;2.45;;;1.58;;
29662;SDS011;16578;53.266;7.920;2023-02-04T06:05:09;2.50;;;1.60;;
29662;SDS011;16578;53.266;7.920;2023-02-04T06:07:35;4.53;;;2.00;;
29662;SDS011;16578;53.266;7.920;2023-02-04T06:10:00;5.60;;;2.10;;
29662;SDS011;16578;53.266;7.920;2023-02-04T06:12:26;3.63;;;1.70;;
29662;SDS011;16578;53.266;7.920;2023-02-04T06:14:51;6.38;;;2.15;;
29662;SDS011;16578;53.266;7.920;2023-02-04T06:17:17;4.68;;;2.10;;
29662;SDS011;16578;53.266;7.920;2023-02-04T06:19:42;6.03;;;2.38;;
29662;SDS011;16578;53.266;7.920;2023-02-04T06:22:08;2.35;;;1.55;;
29662;SDS011;16578;53.266;7.920;2023-02-04T06:24:33;5.20;;;1.60;;
29662;SDS011;16578;53.266;7.920;2023-02-04T06:26:59;5.50;;;1.88;;
29662;SDS011;16578;53.266;7.920;2023-02-04T06:29:25;5.32;;;1.80;;
29662;SDS011;16578;53.266;7.920;2023-02-04T06:31:50;4.68;;;1.90;;
29662;SDS011;16578;53.266;7.920;2023-02-04T06:34:16;3.50;;;1.90;;
29662;SDS011;16578;53.266;7.920;2023-02-04T06:36:41;4.88;;;2.03;;
29662;SDS011;16578;53.266;7.920;2023-02-04T06:39:07;3.97;;;2.03;;
29662;SDS011;16578;53.266;7.920;2023-02-04T06:41:32;5.28;;;1.75;;
29662;SDS011;16578;53.266;7.920;2023-02-04T06:43:58;2.60;;;1.80;;
29662;SDS011;16578;53.266;7.920;2023-02-04T06:46:23;5.10;;;2.30;;
29662;SDS011;16578;53.266;7.920;2023-02-04T06:48:49;4.03;;;2.33;;
29662;SDS011;16578;53.266;7.920;2023-02-04T06:51:14;3.55;;;2.17;;
29662;SDS011;16578;53.266;7.920;2023-02-04T06:53:40;4.22;;;2.38;;
29662;SDS011;16578;53.266;7.920;2023-02-04T06:56:08;6.05;;;3.00;;
29662;SDS011;16578;53.266;7.920;2023-02-04T06:58:34;8.18;;;2.65;;
29662;SDS011;16578;53.266;7.920;2023-02-04T07:01:00;5.93;;;2.75;;
29662;SDS011;16578;53.266;7.920;2023-02-04T07:03:25;6.50;;;3.08;;
29662;SDS011;16578;53.266;7.920;2023-02-04T07:05:51;13.18;;;9.13;;
29662;SDS011;16578;53.266;7.920;2023-02-04T07:08:18;18.67;;;13.13;;
29662;SDS011;16578;53.266;7.920;2023-02-04T07:10:45;20.17;;;13.97;;
29662;SDS011;16578;53.266;7.920;2023-02-04T07:13:11;19.60;;;15.40;;
29662;SDS011;16578;53.266;7.920;2023-02-04T07:15:36;18.63;;;14.60;;
29662;SDS011;16578;53.266;7.920;2023-02-04T07:18:02;17.23;;;11.52;;
29662;SDS011;16578;53.266;7.920;2023-02-04T07:20:28;13.57;;;10.30;;
29662;SDS011;16578;53.266;7.920;2023-02-04T07:22:53;11.00;;;7.88;;
29662;SDS011;16578;53.266;7.920;2023-02-04T07:25:19;10.38;;;7.50;;
29662;SDS011;16578;53.266;7.920;2023-02-04T07:27:44;8.63;;;7.13;;
29662;SDS011;16578;53.266;7.920;2023-02-04T07:30:10;12.50;;;6.75;;
29662;SDS011;16578;53.266;7.920;2023-02-04T07:32:36;11.38;;;8.98;;
29662;SDS011;16578;53.266;7.920;2023-02-04T07:35:01;19.55;;;15.07;;
29662;SDS011;16578;53.266;7.920;2023-02-04T07:37:27;20.85;;;17.25;;
29662;SDS011;16578;53.266;7.920;2023-02-04T07:39:53;20.90;;;17.30;;
29662;SDS011;16578;53.266;7.920;2023-02-04T07:42:18;20.00;;;15.48;;
29662;SDS011;16578;53.266;7.920;2023-02-04T07:44:44;14.43;;;11.82;;
29662;SDS011;16578;53.266;7.920;2023-02-04T07:47:09;12.45;;;9.35;;
29662;SDS011;16578;53.266;7.920;2023-02-04T07:49:36;12.50;;;8.10;;
29662;SDS011;16578;53.266;7.920;2023-02-04T07:52:02;12.18;;;7.13;;
29662;SDS011;16578;53.266;7.920;2023-02-04T07:54:28;7.10;;;4.28;;
29662;SDS011;16578;53.266;7.920;2023-02-04T07:56:53;8.15;;;4.57;;
29662;SDS011;16578;53.266;7.920;2023-02-04T07:59:19;7.90;;;4.28;;
29662;SDS011;16578;53.266;7.920;2023-02-04T08:01:44;4.82;;;3.75;;
29662;SDS011;16578;53.266;7.920;2023-02-04T08:04:11;6.38;;;3.55;;
29662;SDS011;16578;53.266;7.920;2023-02-04T08:06:37;5.90;;;3.50;;
29662;SDS011;16578;53.266;7.920;2023-02-04T08:09:02;7.13;;;4.53;;
29662;SDS011;16578;53.266;7.920;2023-02-04T08:11:28;5.35;;;4.28;;
29662;SDS011;16578;53.266;7.920;2023-02-04T08:13:54;8.18;;;4.05;;
29662;SDS011;16578;53.266;7.920;2023-02-04T08:16:19;5.78;;;4.00;;
29662;SDS011;16578;53.266;7.920;2023-02-04T08:18:45;5.45;;;3.42;;
29662;SDS011;16578;53.266;7.920;2023-02-04T08:21:10;4.50;;;3.30;;
29662;SDS011;16578;53.266;7.920;2023-02-04T08:23:36;6.53;;;4.07;;
29662;SDS011;16578;53.266;7.920;2023-02-04T08:26:05;5.28;;;3.50;;
29662;SDS011;16578;53.266;7.920;2023-02-04T08:28:35;4.80;;;3.65;;
29662;SDS011;16578;53.266;7.920;2023-02-04T08:31:01;7.15;;;4.90;;
29662;SDS011;16578;53.266;7.920;2023-02-04T08:33:30;5.22;;;4.05;;
29662;SDS011;16578;53.266;7.920;2023-02-04T08:35:55;5.35;;;3.83;;
29662;SDS011;16578;53.266;7.920;2023-02-04T08:38:21;3.33;;;2.97;;
29662;SDS011;16578;53.266;7.920;2023-02-04T08:40:46;4.70;;;3.40;;
29662;SDS011;16578;53.266;7.920;2023-02-04T08:43:12;3.72;;;3.22;;
29662;SDS011;16578;53.266;7.920;2023-02-04T08:45:37;5.82;;;3.67;;
29662;SDS011;16578;53.266;7.920;2023-02-04T08:48:03;5.85;;;3.55;;
29662;SDS011;16578;53.266;7.920;2023-02-04T08:50:33;4.15;;;3.30;;
29662;SDS011;16578;53.266;7.920;2023-02-04T08:52:59;5.15;;;3.25;;
29662;SDS011;16578;53.266;7.920;2023-02-04T08:55:24;5.55;;;3.70;;
29662;SDS011;16578;53.266;7.920;2023-02-04T08:57:50;5.60;;;3.70;;
29662;SDS011;16578;53.266;7.920;2023-02-04T09:00:15;13.23;;;4.32;;
29662;SDS011;16578;53.266;7.920;2023-02-04T09:02:42;7.10;;;3.50;;
29662;SDS011;16578;53.266;7.920;2023-02-04T09:05:07;9.68;;;3.72;;
29662;SDS011;16578;53.266;7.920;2023-02-04T09:07:33;4.95;;;3.63;;
29662;SDS011;16578;53.266;7.920;2023-02-04T09:09:58;5.53;;;3.65;;
29662;SDS011;16578;53.266;7.920;2023-02-04T09:12:24;4.35;;;3.42;;
29662;SDS011;16578;53.266;7.920;2023-02-04T09:14:49;4.50;;;3.80;;
29662;SDS011;16578;53.266;7.920;2023-02-04T09:17:15;4.68;;;3.45;;
29662;SDS011;16578;53.266;7.920;2023-02-04T09:19:40;5.50;;;3.50;;
29662;SDS011;16578;53.266;7.920;2023-02-04T09:22:06;6.47;;;4.28;;
29662;SDS011;16578;53.266;7.920;2023-02-04T09:24:31;5.00;;;3.63;;
29662;SDS011;16578;53.266;7.920;2023-02-04T09:26:57;4.40;;;3.28;;
29662;SDS011;16578;53.266;7.920;2023-02-04T09:29:22;5.82;;;4.20;;
29662;SDS011;16578;53.266;7.920;2023-02-04T09:31:48;6.93;;;4.00;;
29662;SDS011;16578;53.266;7.920;2023-02-04T09:34:13;6.28;;;3.53;;
29662;SDS011;16578;53.266;7.920;2023-02-04T09:36:39;4.72;;;3.83;;
29662;SDS011;16578;53.266;7.920;2023-02-04T09:39:05;4.60;;;3.60;;
29662;SDS011;16578;53.266;7.920;2023-02-04T09:41:33;6.35;;;3.80;;
29662;SDS011;16578;53.266;7.920;2023-02-04T09:43:59;5.72;;;4.13;;
29662;SDS011;16578;53.266;7.920;2023-02-04T09:46:25;4.47;;;3.83;;
29662;SDS011;16578;53.266;7.920;2023-02-04T09:48:53;6.88;;;3.90;;
29662;SDS011;16578;53.266;7.920;2023-02-04T09:51:20;7.70;;;3.67;;
29662;SDS011;16578;53.266;7.920;2023-02-04T09:53:49;5.45;;;3.63;;
29662;SDS011;16578;53.266;7.920;2023-02-04T09:56:15;5.38;;;4.10;;
29662;SDS011;16578;53.266;7.920;2023-02-04T09:58:41;5.72;;;3.83;;
29662;SDS011;16578;53.266;7.920;2023-02-04T10:01:14;5.53;;;3.97;;
29662;SDS011;16578;53.266;7.920;2023-02-04T10:03:45;7.65;;;4.00;;
29662;SDS011;16578;53.266;7.920;2023-02-04T10:06:12;5.25;;;3.90;;
29662;SDS011;16578;53.266;7.920;2023-02-04T10:08:39;4.10;;;3.63;;
29662;SDS011;16578;53.266;7.920;2023-02-04T10:11:05;5.03;;;3.53;;
29662;SDS011;16578;53.266;7.920;2023-02-04T10:13:34;4.22;;;3.15;;
29662;SDS011;16578;53.266;7.920;2023-02-04T10:16:03;3.90;;;3.15;;
29662;SDS011;16578;53.266;7.920;2023-02-04T10:18:37;3.83;;;3.42;;
29662;SDS011;16578;53.266;7.920;2023-02-04T10:21:17;4.57;;;3.43;;
29662;SDS011;16578;53.266;7.920;2023-02-04T10:23:55;4.45;;;3.22;;
29662;SDS011;16578;53.266;7.920;2023-02-04T10:26:22;5.53;;;3.20;;
29662;SDS011;16578;53.266;7.920;2023-02-04T10:28:56;5.95;;;3.50;;
29662;SDS011;16578;53.266;7.920;2023-02-04T10:36:38;3.50;;;2.97;;
29662;SDS011;16578;53.266;7.920;2023-02-04T10:39:08;6.03;;;3.47;;
29662;SDS011;16578;53.266;7.920;2023-02-04T10:42:00;6.32;;;3.53;;
29662;SDS011;16578;53.266;7.920;2023-02-04T10:47:01;4.18;;;2.92;;
29662;SDS011;16578;53.266;7.920;2023-02-04T10:49:29;2.80;;;2.50;;
29662;SDS011;16578;53.266;7.920;2023-02-04T10:51:54;7.18;;;3.08;;
29662;SDS011;16578;53.266;7.920;2023-02-04T10:54:20;4.57;;;3.10;;
29662;SDS011;16578;53.266;7.920;2023-02-04T10:56:59;4.45;;;2.85;;
29662;SDS011;16578;53.266;7.920;2023-02-04T10:59:25;3.50;;;2.75;;
29662;SDS011;16578;53.266;7.920;2023-02-04T11:01:52;6.40;;;3.40;;
29662;SDS011;16578;53.266;7.920;2023-02-04T11:04:20;6.50;;;4.07;;
29662;SDS011;16578;53.266;7.920;2023-02-04T11:06:45;5.32;;;3.58;;
29662;SDS011;16578;53.266;7.920;2023-02-04T11:09:14;4.75;;;3.53;;
29662;SDS011;16578;53.266;7.920;2023-02-04T11:11:46;5.60;;;3.22;;
29662;SDS011;16578;53.266;7.920;2023-02-04T11:16:53;4.38;;;2.70;;
29662;SDS011;16578;53.266;7.920;2023-02-04T11:19:34;5.03;;;3.00;;
29662;SDS011;16578;53.266;7.920;2023-02-04T11:22:22;2.85;;;2.47;;
29662;SDS011;16578;53.266;7.920;2023-02-04T11:24:49;5.85;;;2.88;;
29662;SDS011;16578;53.266;7.920;2023-02-04T11:27:24;5.28;;;3.33;;
29662;SDS011;16578;53.266;7.920;2023-02-04T11:30:04;6.10;;;3.97;;
29662;SDS011;16578;53.266;7.920;2023-02-04T11:32:34;4.22;;;3.03;;
29662;SDS011;16578;53.266;7.920;2023-02-04T11:35:44;5.72;;;3.47;;
29662;SDS011;16578;53.266;7.920;2023-02-04T11:37:52;6.53;;;3.72;;
29662;SDS011;16578;53.266;7.920;2023-02-04T11:40:20;4.75;;;3.38;;
29662;SDS011;16578;53.266;7.920;2023-02-04T11:42:48;4.18;;;2.75;;
29662;SDS011;16578;53.266;7.920;2023-02-04T11:45:20;3.20;;;2.67;;
29662;SDS011;16578;53.266;7.920;2023-02-04T11:47:50;4.38;;;3.10;;
29662;SDS011;16578;53.266;7.920;2023-02-04T11:50:18;3.97;;;3.25;;
29662;SDS011;16578;53.266;7.920;2023-02-04T11:52:49;4.45;;;3.30;;
29662;SDS011;16578;53.266;7.920;2023-02-04T11:55:17;4.65;;;3.70;;
29662;SDS011;16578;53.266;7.920;2023-02-04T11:57:43;4.88;;;3.13;;
29662;SDS011;16578;53.266;7.920;2023-02-04T12:00:13;2.83;;;2.45;;
29662;SDS011;16578;53.266;7.920;2023-02-04T12:02:43;3.92;;;3.03;;
29662;SDS011;16578;53.266;7.920;2023-02-04T12:05:14;4.68;;;2.83;;
29662;SDS011;16578;53.266;7.920;2023-02-04T12:07:41;4.80;;;3.30;;
29662;SDS011;16578;53.266;7.920;2023-02-04T12:12:49;6.15;;;3.25;;
29662;SDS011;16578;53.266;7.920;2023-02-04T12:15:22;4.00;;;2.95;;
29662;SDS011;16578;53.266;7.920;2023-02-04T12:18:03;4.03;;;3.17;;
29662;SDS011;16578;53.266;7.920;2023-02-04T12:20:33;3.78;;;2.65;;
29662;SDS011;16578;53.266;7.920;2023-02-04T12:23:00;4.32;;;2.97;;
29662;SDS011;16578;53.266;7.920;2023-02-04T12:25:26;3.83;;;3.15;;
29662;SDS011;16578;53.266;7.920;2023-02-04T12:27:52;3.08;;;2.80;;
29662;SDS011;16578;53.266;7.920;2023-02-04T12:30:19;3.47;;;2.85;;
29662;SDS011;16578;53.266;7.920;2023-02-04T12:32:45;4.13;;;2.60;;
29662;SDS011;16578;53.266;7.920;2023-02-04T12:35:11;3.20;;;2.58;;
29662;SDS011;16578;53.266;7.920;2023-02-04T12:37:36;3.70;;;2.80;;
29662;SDS011;16578;53.266;7.920;2023-02-04T12:40:02;4.55;;;2.78;;
29662;SDS011;16578;53.266;7.920;2023-02-04T12:42:27;3.03;;;2.72;;
29662;SDS011;16578;53.266;7.920;2023-02-04T12:44:53;3.00;;;2.72;;
29662;SDS011;16578;53.266;7.920;2023-02-04T12:47:19;4.22;;;3.00;;
29662;SDS011;16578;53.266;7.920;2023-02-04T12:49:44;4.13;;;2.70;;
29662;SDS011;16578;53.266;7.920;2023-02-04T12:52:10;4.20;;;2.60;;
29662;SDS011;16578;53.266;7.920;2023-02-04T12:54:36;3.53;;;2.85;;
29662;SDS011;16578;53.266;7.920;2023-02-04T12:57:02;5.78;;;2.92;;
29662;SDS011;16578;53.266;7.920;2023-02-04T12:59:27;2.95;;;2.65;;
29662;SDS011;16578;53.266;7.920;2023-02-04T13:01:55;2.53;;;2.30;;
29662;SDS011;16578;53.266;7.920;2023-02-04T13:04:21;3.63;;;3.00;;
29662;SDS011;16578;53.266;7.920;2023-02-04T13:06:46;4.07;;;3.05;;
29662;SDS011;16578;53.266;7.920;2023-02-04T13:09:12;4.13;;;3.10;;
29662;SDS011;16578;53.266;7.920;2023-02-04T13:11:37;2.83;;;2.50;;
29662;SDS011;16578;53.266;7.920;2023-02-04T13:14:03;4.82;;;2.88;;
29662;SDS011;16578;53.266;7.920;2023-02-04T13:16:28;5.65;;;2.55;;
29662;SDS011;16578;53.266;7.920;2023-02-04T13:18:54;5.65;;;2.85;;
29662;SDS011;16578;53.266;7.920;2023-02-04T13:21:20;3.80;;;3.03;;
29662;SDS011;16578;53.266;7.920;2023-02-04T13:23:45;4.28;;;2.95;;
29662;SDS011;16578;53.266;7.920;2023-02-04T13:26:11;3.30;;;3.00;;
29662;SDS011;16578;53.266;7.920;2023-02-04T13:28:36;3.00;;;2.70;;
29662;SDS011;16578;53.266;7.920;2023-02-04T13:31:02;3.50;;;2.80;;
29662;SDS011;16578;53.266;7.920;2023-02-04T13:33:27;3.30;;;2.50;;
29662;SDS011;16578;53.266;7.920;2023-02-04T13:35:53;3.00;;;2.40;;
29662;SDS011;16578;53.266;7.920;2023-02-04T13:38:19;2.58;;;2.38;;
29662;SDS011;16578;53.266;7.920;2023-02-04T13:40:44;2.90;;;2.63;;
29662;SDS011;16578;53.266;7.920;2023-02-04T13:43:10;3.13;;;2.72;;
29662;SDS011;16578;53.266;7.920;2023-02-04T13:45:35;4.15;;;2.63;;
29662;SDS011;16578;53.266;7.920;2023-02-04T13:48:01;3.47;;;2.55;;
29662;SDS011;16578;53.266;7.920;2023-02-04T13:50:27;4.10;;;2.63;;
29662;SDS011;16578;53.266;7.920;2023-02-04T13:52:52;3.58;;;2.83;;
29662;SDS011;16578;53.266;7.920;2023-02-04T13:55:19;3.15;;;2.60;;
29662;SDS011;16578;53.266;7.920;2023-02-04T13:57:45;4.15;;;3.10;;
29662;SDS011;16578;53.266;7.920;2023-02-04T14:00:10;3.75;;;3.08;;
29662;SDS011;16578;53.266;7.920;2023-02-04T14:02:36;2.58;;;2.38;;
29662;SDS011;16578;53.266;7.920;2023-02-04T14:05:02;5.22;;;2.92;;
29662;SDS011;16578;53.266;7.920;2023-02-04T14:07:28;3.63;;;2.88;;
29662;SDS011;16578;53.266;7.920;2023-02-04T14:09:54;3.00;;;2.70;;
29662;SDS011;16578;53.266;7.920;2023-02-04T14:12:20;3.28;;;2.97;;
29662;SDS011;16578;53.266;7.920;2023-02-04T14:14:48;4.78;;;2.90;;
29662;SDS011;16578;53.266;7.920;2023-02-04T14:17:14;4.38;;;3.15;;
29662;SDS011;16578;53.266;7.920;2023-02-04T14:19:39;5.95;;;3.22;;
29662;SDS011;16578;53.266;7.920;2023-02-04T14:22:05;3.10;;;2.80;;
29662;SDS011;16578;53.266;7.920;2023-02-04T14:24:31;3.08;;;2.75;;
29662;SDS011;16578;53.266;7.920;2023-02-04T14:26:57;5.97;;;2.80;;
29662;SDS011;16578;53.266;7.920;2023-02-04T14:29:22;3.47;;;2.88;;
29662;SDS011;16578;53.266;7.920;2023-02-04T14:31:48;5.05;;;3.15;;
29662;SDS011;16578;53.266;7.920;2023-02-04T14:34:14;3.42;;;2.65;;
29662;SDS011;16578;53.266;7.920;2023-02-04T14:36:39;3.03;;;2.67;;
29662;SDS011;16578;53.266;7.920;2023-02-04T14:39:05;3.78;;;2.72;;
29662;SDS011;16578;53.266;7.920;2023-02-04T14:41:30;3.20;;;2.72;;
29662;SDS011;16578;53.266;7.920;2023-02-04T14:43:56;3.10;;;2.60;;
29662;SDS011;16578;53.266;7.920;2023-02-04T14:46:22;3.20;;;2.80;;
29662;SDS011;16578;53.266;7.920;2023-02-04T14:48:47;2.83;;;2.55;;
29662;SDS011;16578;53.266;7.920;2023-02-04T14:51:15;3.38;;;2.67;;
29662;SDS011;16578;53.266;7.920;2023-02-04T14:53:41;4.63;;;3.42;;
29662;SDS011;16578;53.266;7.920;2023-02-04T14:56:07;4.65;;;3.40;;
29662;SDS011;16578;53.266;7.920;2023-02-04T14:58:32;3.55;;;3.03;;
29662;SDS011;16578;53.266;7.920;2023-02-04T15:00:58;3.95;;;2.90;;